Time;durP1;ratioP1;P1;durP2;ratioP2;P2;SDS_P1;SDS_P2;PMS_P1;PMS_P2;Temp;Humidity;BMP_temperature;BMP_pressure;BME280_temperature;BME280_humidity;BME280_pressure;Samples;Min_cycle;Max_cycle;Signal;HPM_P1;HPM_P2
2022/07/19 00:02:05;;;;;;;4.75;3.35;;;20.50;90.20;;;;;;5060715;28;20633;-50
2022/07/19 00:04:32;;;;;;;6.07;3.25;;;20.60;90.30;;;;;;5059013;28;20151;-50
2022/07/19 00:06:58;;;;;;;5.97;3.25;;;20.60;90.30;;;;;;5056632;28;20029;-50
2022/07/19 00:09:25;;;;;;;4.50;2.95;;;20.60;90.50;;;;;;5057933;28;20067;-50
2022/07/19 00:11:51;;;;;;;6.85;3.53;;;20.60;90.40;;;;;;5088457;28;20062;-50
2022/07/19 00:14:18;;;;;;;6.20;3.13;;;20.60;90.30;;;;;;5079190;28;20056;-50
2022/07/19 00:16:44;;;;;;;5.00;3.03;;;20.60;90.40;;;;;;5083696;28;20526;-50
2022/07/19 00:19:09;;;;;;;8.27;3.22;;;20.60;90.60;;;;;;5038435;28;20077;-50
2022/07/19 00:21:35;;;;;;;7.88;3.22;;;20.70;90.50;;;;;;5079046;28;20040;-50
2022/07/19 00:24:01;;;;;;;6.38;3.20;;;20.70;90.50;;;;;;5083447;28;20110;-50
2022/07/19 00:26:28;;;;;;;5.97;2.63;;;20.70;90.50;;;;;;5079558;28;20451;-50
2022/07/19 00:28:54;;;;;;;6.80;3.03;;;20.70;90.60;;;;;;5086588;28;20032;-50
2022/07/19 00:31:24;;;;;;;5.95;2.70;;;20.60;90.60;;;;;;5084437;28;20020;-51
2022/07/19 00:33:51;;;;;;;3.63;2.80;;;20.50;90.90;;;;;;5084185;28;20036;-51
2022/07/19 00:36:18;;;;;;;5.15;3.33;;;20.50;90.90;;;;;;5077957;28;20033;-50
2022/07/19 00:38:44;;;;;;;6.78;3.25;;;20.40;91.20;;;;;;5098427;28;20040;-50
2022/07/19 00:41:10;;;;;;;5.22;2.85;;;20.30;91.40;;;;;;5082039;28;20051;-51
2022/07/19 00:43:40;;;;;;;8.50;3.30;;;20.20;91.50;;;;;;5080633;28;20024;-50
2022/07/19 00:46:12;;;;;;;7.07;3.08;;;20.20;91.50;;;;;;5080620;28;20487;-50
2022/07/19 00:48:38;;;;;;;6.40;2.55;;;20.10;91.30;;;;;;5074640;28;20036;-50
2022/07/19 00:51:04;;;;;;;4.30;2.83;;;20.10;91.40;;;;;;5082751;28;20112;-50
2022/07/19 00:53:31;;;;;;;9.55;3.63;;;20.10;91.40;;;;;;5082753;28;20111;-51
2022/07/19 00:55:59;;;;;;;6.15;2.80;;;20.00;91.50;;;;;;5077140;28;20035;-50
2022/07/19 00:58:26;;;;;;;5.43;3.28;;;20.00;91.80;;;;;;5076827;28;20038;-50
2022/07/19 01:00:52;;;;;;;7.28;3.03;;;20.00;91.90;;;;;;5082625;28;20501;-50
2022/07/19 01:03:18;;;;;;;8.30;2.83;;;20.00;92.00;;;;;;5083110;28;20032;-50
2022/07/19 01:05:46;;;;;;;5.82;2.58;;;20.00;91.90;;;;;;5078782;28;20119;-50
2022/07/19 01:08:12;;;;;;;5.85;3.47;;;20.00;91.90;;;;;;5082174;28;20048;-50
2022/07/19 01:10:38;;;;;;;6.60;2.90;;;20.00;91.90;;;;;;5086039;28;20032;-50
2022/07/19 01:13:04;;;;;;;6.57;2.47;;;20.00;92.00;;;;;;5085594;28;20102;-50
2022/07/19 01:15:30;;;;;;;4.22;3.00;;;20.00;92.10;;;;;;5042253;28;20401;-49
2022/07/19 01:17:56;;;;;;;5.65;3.20;;;20.00;92.20;;;;;;5044276;28;20399;-50
2022/07/19 01:20:24;;;;;;;3.67;2.65;;;19.90;92.20;;;;;;5083494;28;20048;-50
2022/07/19 01:22:49;;;;;;;4.10;2.80;;;19.90;92.30;;;;;;5077139;28;20115;-50
2022/07/19 01:25:15;;;;;;;8.38;3.15;;;19.90;92.50;;;;;;5085476;28;20127;-50
2022/07/19 01:27:44;;;;;;;7.57;3.42;;;19.80;92.60;;;;;;5032961;28;20479;-50
2022/07/19 01:30:15;;;;;;;5.78;3.00;;;19.80;99.90;;;;;;5083683;28;20039;-51
2022/07/19 01:32:41;;;;;;;7.72;3.22;;;19.90;99.90;;;;;;5084839;28;20059;-50
2022/07/19 01:35:08;;;;;;;6.53;2.65;;;19.90;99.90;;;;;;5081628;28;20502;-50
2022/07/19 01:37:34;;;;;;;4.22;2.55;;;19.70;92.50;;;;;;5028771;28;20058;-50
2022/07/19 01:40:05;;;;;;;5.10;2.60;;;19.60;92.90;;;;;;5066548;28;20074;-49
2022/07/19 01:42:31;;;;;;;4.95;2.63;;;19.50;93.10;;;;;;5085243;28;20123;-50
2022/07/19 01:44:57;;;;;;;6.25;2.72;;;19.60;93.10;;;;;;5065267;28;20139;-50
2022/07/19 01:47:23;;;;;;;5.63;2.83;;;19.60;93.10;;;;;;5076620;28;20101;-49
2022/07/19 01:49:49;;;;;;;4.72;2.90;;;19.50;93.20;;;;;;5056874;28;20088;-50
2022/07/19 01:52:15;;;;;;;6.90;2.70;;;19.60;93.10;;;;;;5083838;28;20028;-49
2022/07/19 01:54:41;;;;;;;8.77;3.10;;;19.50;93.10;;;;;;5084926;28;20028;-49
2022/07/19 01:57:07;;;;;;;4.45;2.70;;;19.50;93.30;;;;;;5085445;28;20131;-50
2022/07/19 01:59:35;;;;;;;5.50;2.85;;;19.40;93.40;;;;;;5085131;28;20036;-50
2022/07/19 02:02:01;;;;;;;11.73;3.58;;;19.50;93.40;;;;;;5074289;28;20058;-49
2022/07/19 02:04:26;;;;;;;5.88;3.20;;;19.40;93.50;;;;;;5065539;28;20044;-50
2022/07/19 02:06:52;;;;;;;6.68;2.60;;;19.40;93.60;;;;;;5085130;28;20114;-50
2022/07/19 02:09:18;;;;;;;5.30;2.67;;;19.40;93.70;;;;;;5076390;28;20040;-49
2022/07/19 02:11:43;;;;;;;7.60;2.92;;;19.40;93.80;;;;;;5080401;28;20046;-50
2022/07/19 02:14:09;;;;;;;5.13;2.50;;;19.50;93.80;;;;;;5085399;28;20034;-50
2022/07/19 02:16:36;;;;;;;3.28;2.40;;;19.50;93.90;;;;;;5084761;28;20058;-50
2022/07/19 02:19:02;;;;;;;5.15;2.65;;;19.40;93.80;;;;;;5083253;28;20039;-50
2022/07/19 02:21:28;;;;;;;7.03;2.80;;;19.40;94.10;;;;;;5082913;28;20087;-50
2022/07/19 02:23:54;;;;;;;12.18;3.33;;;19.30;94.20;;;;;;5058609;28;20032;-50
2022/07/19 02:26:20;;;;;;;8.65;3.13;;;19.30;94.10;;;;;;5082866;28;20036;-50
2022/07/19 02:28:46;;;;;;;6.32;2.92;;;19.30;94.20;;;;;;5048213;28;20039;-50
2022/07/19 02:31:12;;;;;;;18.17;4.82;;;19.30;94.30;;;;;;5084340;28;20548;-49
2022/07/19 02:33:38;;;;;;;7.65;3.17;;;19.30;94.40;;;;;;5071694;28;20040;-50
2022/07/19 02:36:04;;;;;;;12.30;3.38;;;19.30;94.40;;;;;;5014859;28;20097;-50
2022/07/19 02:38:30;;;;;;;9.90;3.13;;;19.30;94.40;;;;;;5079346;28;20582;-50
2022/07/19 02:40:56;;;;;;;7.65;3.25;;;19.20;94.50;;;;;;5086586;28;20043;-50
2022/07/19 02:43:22;;;;;;;5.05;2.67;;;19.20;94.50;;;;;;5082363;28;20028;-51
2022/07/19 02:45:47;;;;;;;8.30;3.42;;;19.20;94.50;;;;;;5059147;28;20083;-49
2022/07/19 02:48:13;;;;;;;6.57;3.00;;;19.20;94.50;;;;;;5084078;28;20072;-51
2022/07/19 02:50:39;;;;;;;9.43;3.00;;;19.20;94.60;;;;;;5082709;28;20411;-49
2022/07/19 02:53:05;;;;;;;6.78;4.38;;;19.20;94.90;;;;;;5042253;28;20043;-49
2022/07/19 02:55:31;;;;;;;6.22;3.97;;;19.10;94.50;;;;;;5082608;28;20059;-50
2022/07/19 02:57:57;;;;;;;13.02;4.60;;;19.10;94.60;;;;;;5084093;28;20025;-50
2022/07/19 03:00:22;;;;;;;6.57;2.80;;;19.10;94.80;;;;;;5081816;28;20128;-49
2022/07/19 03:02:48;;;;;;;5.97;2.90;;;19.00;94.70;;;;;;5014558;28;20127;-51
2022/07/19 03:05:14;;;;;;;8.43;3.55;;;19.00;94.70;;;;;;5075115;28;20028;-50
2022/07/19 03:07:40;;;;;;;8.38;3.92;;;18.90;94.80;;;;;;5045943;28;20036;-49
2022/07/19 03:10:06;;;;;;;6.80;5.25;;;19.00;94.70;;;;;;5030503;28;20044;-49
2022/07/19 03:12:32;;;;;;;26.30;14.20;;;18.90;94.70;;;;;;5083432;28;20086;-51
2022/07/19 03:14:58;;;;;;;34.00;18.70;;;18.80;94.80;;;;;;5045757;28;20487;-49
2022/07/19 03:17:24;;;;;;;12.07;8.48;;;18.80;94.90;;;;;;5082131;28;20366;-50
2022/07/19 03:19:49;;;;;;;11.30;7.22;;;18.80;94.90;;;;;;5082156;28;20035;-50
2022/07/19 03:22:15;;;;;;;26.27;23.60;;;18.70;95.10;;;;;;5082799;28;20510;-50
2022/07/19 03:24:41;;;;;;;13.18;6.80;;;18.70;95.20;;;;;;5036596;28;20499;-52
2022/07/19 03:27:07;;;;;;;12.60;3.97;;;18.60;95.30;;;;;;5074574;28;20028;-49
2022/07/19 03:29:32;;;;;;;7.60;3.60;;;18.60;95.40;;;;;;5044986;28;20651;-50
2022/07/19 03:31:58;;;;;;;5.25;3.25;;;18.50;95.50;;;;;;5048231;28;20044;-51
2022/07/19 03:34:25;;;;;;;26.55;21.83;;;18.60;95.70;;;;;;5084065;28;20039;-48
2022/07/19 03:36:51;;;;;;;24.40;19.02;;;18.60;95.80;;;;;;5074694;28;20077;-49
2022/07/19 03:39:17;;;;;;;8.70;6.53;;;18.50;96.10;;;;;;5081036;28;20044;-51
2022/07/19 03:41:43;;;;;;;7.25;3.25;;;18.40;96.20;;;;;;5074583;28;20036;-51
2022/07/19 03:44:09;;;;;;;3.97;2.70;;;18.40;96.50;;;;;;5062188;28;20039;-49
2022/07/19 03:46:34;;;;;;;5.10;2.85;;;18.40;96.60;;;;;;5083068;28;20074;-52
2022/07/19 03:49:00;;;;;;;5.72;2.90;;;18.20;96.90;;;;;;5081072;28;20079;-51
2022/07/19 03:51:26;;;;;;;7.65;2.83;;;18.20;97.10;;;;;;5075785;28;20119;-51
2022/07/19 03:53:52;;;;;;;3.75;2.53;;;18.20;97.30;;;;;;5046280;28;20124;-51
2022/07/19 03:56:18;;;;;;;9.60;3.17;;;18.20;97.40;;;;;;5083210;28;20571;-51
2022/07/19 03:58:44;;;;;;;6.28;2.60;;;18.30;97.60;;;;;;5083139;28;20540;-51
2022/07/19 04:01:10;;;;;;;6.15;3.72;;;18.40;97.80;;;;;;5029984;28;20064;-51
2022/07/19 04:03:39;;;;;;;6.32;2.28;;;18.50;98.00;;;;;;5085620;28;20085;-51
2022/07/19 04:06:09;;;;;;;7.10;2.83;;;18.50;97.90;;;;;;5037494;28;20503;-51
2022/07/19 04:08:35;;;;;;;5.97;2.55;;;18.60;98.20;;;;;;5080026;28;20391;-51
2022/07/19 04:11:01;;;;;;;7.28;2.65;;;18.60;98.30;;;;;;5079383;28;20043;-51
2022/07/19 04:13:27;;;;;;;9.48;3.05;;;18.70;98.40;;;;;;5044695;28;20047;-51
2022/07/19 04:15:53;;;;;;;7.85;3.00;;;18.70;98.60;;;;;;5079710;28;20036;-51
2022/07/19 04:18:18;;;;;;;5.30;2.30;;;18.80;98.80;;;;;;5081601;28;20036;-52
2022/07/19 04:20:44;;;;;;;4.03;2.40;;;18.80;98.60;;;;;;5080623;28;20044;-51
2022/07/19 04:23:10;;;;;;;3.28;2.17;;;18.90;99.90;;;;;;5080674;28;20032;-48
2022/07/19 04:25:36;;;;;;;4.43;2.45;;;18.80;99.90;;;;;;5080754;28;20536;-51
2022/07/19 04:28:03;;;;;;;5.13;2.67;;;18.90;99.90;;;;;;5078811;28;20036;-51
2022/07/19 04:45:21;;;;;;;15.73;4.57;;;18.90;99.90;;;;;;5055654;28;20412;-51
2022/07/19 04:47:47;;;;;;;6.03;2.80;;;19.50;99.90;;;;;;5074020;28;20463;-50
2022/07/19 04:50:12;;;;;;;6.93;3.38;;;19.50;99.60;;;;;;5069313;28;20064;-51
2022/07/19 04:52:38;;;;;;;5.97;2.83;;;19.60;99.40;;;;;;5042860;28;20017;-51
2022/07/19 04:55:04;;;;;;;10.50;2.90;;;19.70;99.90;;;;;;5043591;28;20037;-51
2022/07/19 04:57:31;;;;;;;6.38;3.10;;;19.80;99.60;;;;;;5054649;28;20043;-50
2022/07/19 04:59:56;;;;;;;5.65;2.70;;;19.80;99.60;;;;;;5034419;28;20137;-50
2022/07/19 05:02:22;;;;;;;6.78;3.20;;;20.00;99.80;;;;;;5055535;28;20120;-49
2022/07/19 05:04:48;;;;;;;4.88;2.72;;;20.30;99.80;;;;;;5070098;28;20045;-50
2022/07/19 05:07:14;;;;;;;5.28;2.88;;;20.40;98.80;;;;;;5064299;28;20083;-49
2022/07/19 05:09:39;;;;;;;4.38;2.75;;;20.70;98.60;;;;;;5032644;28;20527;-50
2022/07/19 05:12:07;;;;;;;5.82;2.88;;;20.70;98.30;;;;;;5037932;28;20034;-49
2022/07/19 05:14:33;;;;;;;4.90;2.97;;;20.80;98.10;;;;;;5043801;28;20051;-50
2022/07/19 05:16:59;;;;;;;5.88;2.83;;;20.80;98.10;;;;;;5038838;28;20758;-49
2022/07/19 05:19:25;;;;;;;6.68;2.75;;;21.00;98.30;;;;;;5041075;28;20052;-49
2022/07/19 05:21:51;;;;;;;4.95;2.70;;;;;;;;;;5055583;28;20045;-49
2022/07/19 05:24:17;;;;;;;5.47;2.92;;;21.40;98.10;;;;;;5038467;28;20391;-49
2022/07/19 05:26:43;;;;;;;4.32;2.72;;;21.30;97.30;;;;;;5042536;28;20029;-49
2022/07/19 05:29:09;;;;;;;13.23;2.72;;;21.50;97.00;;;;;;5023298;28;20044;-49
2022/07/19 05:31:35;;;;;;;4.68;2.60;;;21.50;96.20;;;;;;5042925;28;20086;-49
2022/07/19 05:34:01;;;;;;;8.65;2.75;;;21.60;96.00;;;;;;5032382;28;20044;-49
2022/07/19 05:36:27;;;;;;;4.82;2.75;;;21.70;95.70;;;;;;5040284;28;20454;-49
2022/07/19 05:38:53;;;;;;;6.55;2.55;;;21.80;95.60;;;;;;5036947;28;20108;-49
2022/07/19 05:41:21;;;;;;;7.13;2.50;;;21.90;94.80;;;;;;5050724;28;20132;-48
2022/07/19 05:43:48;;;;;;;2.95;2.22;;;21.90;95.20;;;;;;5041713;28;20484;-49
2022/07/19 05:46:14;;;;;;;5.28;2.35;;;21.90;95.20;;;;;;5028709;28;20695;-49
2022/07/19 05:48:39;;;;;;;9.50;3.05;;;21.80;95.70;;;;;;5022075;28;20029;-50
2022/07/19 05:51:06;;;;;;;11.57;2.50;;;21.80;95.40;;;;;;5022985;28;20084;-49
2022/07/19 05:53:31;;;;;;;5.70;2.97;;;22.00;95.90;;;;;;5025735;28;20500;-50
2022/07/19 05:55:57;;;;;;;4.85;3.28;;;22.20;95.40;;;;;;5035186;28;20128;-50
2022/07/19 05:58:24;;;;;;;6.07;2.72;;;22.10;95.00;;;;;;5022758;28;20034;-50
2022/07/19 06:03:35;;;;;;;5.95;3.20;;;22.20;95.10;;;;;;5012459;28;20882;-51
2022/07/19 06:06:01;;;;;;;5.53;2.75;;;22.30;95.00;;;;;;5019503;28;20048;-50
2022/07/19 06:08:27;;;;;;;7.22;2.53;;;22.40;95.20;;;;;;5031332;28;20535;-50
2022/07/19 06:10:52;;;;;;;10.60;3.10;;;22.50;94.80;;;;;;5022684;28;20064;-54
2022/07/19 06:13:18;;;;;;;5.55;2.67;;;22.50;94.40;;;;;;5038708;28;20045;-51
2022/07/19 06:15:44;;;;;;;6.25;2.78;;;22.40;94.30;;;;;;5039834;28;20480;-53
2022/07/19 06:18:10;;;;;;;6.53;3.08;;;22.60;94.60;;;;;;5025819;28;20026;-52
2022/07/19 06:20:36;;;;;;;7.30;3.10;;;22.70;94.30;;;;;;5019334;28;20032;-53
2022/07/19 06:23:02;;;;;;;7.80;2.88;;;22.90;94.20;;;;;;5026549;28;20040;-53
2022/07/19 06:25:27;;;;;;;5.97;3.10;;;23.00;94.20;;;;;;4963637;28;20125;-54
2022/07/19 06:27:53;;;;;;;8.98;3.30;;;23.10;94.00;;;;;;5012880;28;20063;-52
2022/07/19 06:30:19;;;;;;;7.13;2.95;;;23.30;93.90;;;;;;5019729;28;20038;-49
2022/07/19 06:32:45;;;;;;;9.95;3.47;;;23.40;93.70;;;;;;5025304;28;20029;-55
2022/07/19 06:35:10;;;;;;;6.90;2.78;;;23.50;93.40;;;;;;5025495;28;20044;-54
2022/07/19 06:37:36;;;;;;;5.93;3.10;;;23.60;93.80;;;;;;5017301;28;20042;-56
2022/07/19 06:40:02;;;;;;;8.00;3.10;;;23.70;93.40;;;;;;5009576;28;20034;-56
2022/07/19 06:42:28;;;;;;;6.82;3.22;;;23.80;93.80;;;;;;5001870;28;20485;-52
2022/07/19 06:44:54;;;;;;;9.27;3.95;;;;;;;;;;5025455;28;20052;-56
2022/07/19 06:47:20;;;;;;;9.20;3.88;;;24.20;99.90;;;;;;5010818;28;20112;-53
2022/07/19 06:49:46;;;;;;;8.50;3.80;;;;;;;;;;5024984;28;20236;-57
2022/07/19 06:52:12;;;;;;;14.25;4.30;;;24.40;94.70;;;;;;5028446;28;20033;-55
2022/07/19 06:54:38;;;;;;;19.13;4.28;;;24.50;93.40;;;;;;5026168;28;20428;-52
2022/07/19 06:57:05;;;;;;;8.05;3.55;;;24.60;93.20;;;;;;5026732;28;20036;-51
2022/07/19 06:59:30;;;;;;;8.88;3.67;;;24.70;92.80;;;;;;5027023;28;20400;-51
2022/07/19 07:01:57;;;;;;;8.32;4.00;;;;;;;;;;5026602;28;20037;-53
2022/07/19 07:04:22;;;;;;;7.97;4.03;;;24.90;99.90;;;;;;5022458;28;20412;-51
2022/07/19 07:06:48;;;;;;;4.70;2.60;;;25.00;92.20;;;;;;5025056;28;20037;-52
2022/07/19 07:09:14;;;;;;;6.53;2.72;;;25.10;91.20;;;;;;5031462;28;20040;-51
2022/07/19 07:11:39;;;;;;;9.27;2.95;;;25.10;90.70;;;;;;5026806;28;20041;-51
2022/07/19 07:14:05;;;;;;;9.68;3.00;;;25.10;91.10;;;;;;5054671;28;20038;-52
2022/07/19 07:16:31;;;;;;;12.07;3.00;;;25.20;91.10;;;;;;5029987;28;20380;-51
2022/07/19 07:18:57;;;;;;;8.15;2.83;;;25.40;90.90;;;;;;5021363;28;20097;-51
2022/07/19 07:21:23;;;;;;;4.90;2.42;;;;;;;;;;5026447;28;20091;-51
2022/07/19 07:23:49;;;;;;;16.23;3.50;;;;;;;;;;5030452;28;20029;-52
2022/07/19 07:26:15;;;;;;;9.35;3.15;;;26.00;99.90;;;;;;5021690;28;20381;-52
2022/07/19 07:28:41;;;;;;;8.32;2.90;;;25.90;90.10;;;;;;5023765;28;20061;-52
2022/07/19 07:31:07;;;;;;;12.02;3.35;;;25.80;88.90;;;;;;5017615;28;20073;-53
2022/07/19 07:33:32;;;;;;;14.23;3.22;;;26.00;88.70;;;;;;5021200;28;20501;-53
2022/07/19 07:35:58;;;;;;;16.45;3.13;;;;;;;;;;5024731;28;20034;-52
2022/07/19 07:38:24;;;;;;;14.43;3.85;;;26.40;89.60;;;;;;5022666;28;20029;-51
2022/07/19 07:40:50;;;;;;;10.60;3.03;;;26.50;88.90;;;;;;5024261;28;20036;-52
2022/07/19 07:43:16;;;;;;;15.30;2.53;;;26.40;86.90;;;;;;5022519;28;20037;-52
2022/07/19 07:45:42;;;;;;;14.20;3.22;;;;;;;;;;5022964;28;20032;-53
2022/07/19 07:48:08;;;;;;;7.95;2.88;;;26.60;86.50;;;;;;5022297;28;20040;-51
2022/07/19 07:50:34;;;;;;;21.10;3.55;;;26.60;85.50;;;;;;5027010;28;20026;-50
2022/07/19 07:53:00;;;;;;;12.45;3.40;;;;;;;;;;5024925;28;20034;-50
2022/07/19 07:55:26;;;;;;;11.95;2.83;;;;;;;;;;5043886;28;20048;-52
2022/07/19 07:57:52;;;;;;;8.13;2.85;;;27.00;98.90;;;;;;5020201;28;20029;-49
2022/07/19 08:00:18;;;;;;;13.90;2.90;;;;;;;;;;5043349;28;20043;-50
2022/07/19 08:02:45;;;;;;;6.80;2.40;;;27.40;98.90;;;;;;5023916;28;20512;-50
2022/07/19 08:05:12;;;;;;;5.78;2.30;;;;;;;;;;5020634;28;20050;-50
2022/07/19 08:07:38;;;;;;;7.72;2.25;;;27.30;84.00;;;;;;5021465;28;20018;-50
2022/07/19 08:10:06;;;;;;;8.30;2.65;;;;;;;;;;5029126;28;20030;-51
2022/07/19 08:12:32;;;;;;;7.97;2.08;;;;;;;;;;5022235;28;20029;-51
2022/07/19 08:14:58;;;;;;;8.10;2.17;;;28.00;95.30;;;;;;5022912;28;20045;-51
2022/07/19 08:17:24;;;;;;;9.15;2.15;;;27.90;84.10;;;;;;5026088;28;20038;-50
2022/07/19 08:19:50;;;;;;;8.25;2.20;;;28.00;82.50;;;;;;5024448;28;20599;-51
2022/07/19 08:22:18;;;;;;;6.97;2.40;;;;;;;;;;5024210;28;20025;-50
2022/07/19 08:24:45;;;;;;;7.22;1.90;;;28.40;81.60;;;;;;5042260;28;20041;-51
2022/07/19 08:27:10;;;;;;;4.03;2.00;;;28.50;81.50;;;;;;5028287;28;20025;-51
2022/07/19 08:29:36;;;;;;;6.68;2.00;;;28.70;80.30;;;;;;5019470;28;20049;-50
2022/07/19 08:32:02;;;;;;;3.92;1.85;;;28.80;80.70;;;;;;5024462;28;20488;-51
2022/07/19 08:34:29;;;;;;;6.18;1.92;;;;;;;;;;5041607;28;20046;-50
2022/07/19 08:36:55;;;;;;;10.00;2.20;;;;;;;;;;5022914;28;20036;-50
2022/07/19 08:39:21;;;;;;;4.78;2.05;;;;;;;;;;5024838;28;20029;-51
2022/07/19 08:41:47;;;;;;;3.45;1.77;;;;;;;;;;5054060;28;20096;-51
2022/07/19 08:44:13;;;;;;;4.28;1.73;;;29.10;99.90;;;;;;5025664;28;20049;-50
2022/07/19 08:46:41;;;;;;;8.77;2.05;;;29.40;80.30;;;;;;5024633;28;20477;-50
2022/07/19 08:49:08;;;;;;;6.82;2.20;;;29.40;79.90;;;;;;5017735;28;20103;-50
2022/07/19 08:51:35;;;;;;;7.10;3.58;;;;;;;;;;5024929;28;20104;-51
2022/07/19 08:54:01;;;;;;;6.15;2.33;;;29.70;99.90;;;;;;5021814;28;20040;-51
2022/07/19 08:59:12;;;;;;;2.70;1.67;;;29.70;79.00;;;;;;5020006;28;20041;-51
2022/07/19 09:01:39;;;;;;;7.28;2.33;;;;;;;;;;5024380;28;20033;-51
2022/07/19 09:04:16;;;;;;;7.07;2.50;;;;;;;;;;5020159;28;20030;-52
2022/07/19 09:06:43;;;;;;;6.07;2.35;;;;;;;;;;5039184;28;20696;-52
2022/07/19 09:09:10;;;;;;;5.97;2.05;;;30.40;75.70;;;;;;5038063;28;20041;-51
2022/07/19 09:11:48;;;;;;;8.55;1.98;;;30.60;77.70;;;;;;5021694;28;20047;-51
2022/07/19 09:14:15;;;;;;;5.57;1.90;;;;;;;;;;5037945;28;20041;-51
2022/07/19 09:17:06;;;;;;;10.70;2.00;;;30.80;99.90;;;;;;5037821;28;20033;-50
2022/07/19 09:19:35;;;;;;;6.00;1.80;;;;;;;;;;4988008;28;20445;-50
2022/07/19 09:22:01;;;;;;;5.72;2.20;;;;;;;;;;4993003;28;20089;-51
2022/07/19 09:24:29;;;;;;;5.65;2.38;;;31.00;73.50;;;;;;4974594;28;20051;-51
2022/07/19 09:26:59;;;;;;;8.23;2.03;;;31.20;75.40;;;;;;4991612;28;20038;-52
2022/07/19 09:29:27;;;;;;;4.97;2.00;;;;;;;;;;4991289;28;20053;-50
2022/07/19 09:32:01;;;;;;;6.10;2.05;;;;;;;;;;4991920;28;20046;-51
2022/07/19 09:34:28;;;;;;;3.80;1.45;;;;;;;;;;4991537;28;20465;-50
2022/07/19 09:37:14;;;;;;;4.78;1.75;;;31.40;98.50;;;;;;4955554;28;20043;-51
2022/07/19 09:39:44;;;;;;;4.45;1.90;;;31.30;70.70;;;;;;4987929;28;20039;-51
2022/07/19 09:42:12;;;;;;;4.72;1.80;;;31.70;72.20;;;;;;4971405;28;20030;-52
2022/07/19 09:44:38;;;;;;;2.58;1.40;;;;;;;;;;4955477;28;20086;-52
2022/07/19 09:47:03;;;;;;;4.90;1.52;;;32.00;84.30;;;;;;4971418;28;20453;-51
2022/07/19 09:49:29;;;;;;;6.60;1.77;;;32.10;90.80;;;;;;4971623;28;20130;-51
2022/07/19 09:51:56;;;;;;;5.20;1.70;;;;;;;;;;4972055;28;20126;-51
2022/07/19 09:54:26;;;;;;;7.70;2.28;;;32.90;98.90;;;;;;4955341;28;20130;-51
2022/07/19 09:56:54;;;;;;;4.93;2.45;;;;;;;;;;5011107;28;20041;-50
2022/07/19 09:59:22;;;;;;;2.35;1.50;;;33.00;81.30;;;;;;5028474;28;20084;-51
2022/07/19 10:01:49;;;;;;;5.32;1.88;;;33.10;85.90;;;;;;5023285;28;20034;-51
2022/07/19 10:04:18;;;;;;;3.60;1.60;;;32.70;85.30;;;;;;5044865;28;20081;-50
2022/07/19 10:06:45;;;;;;;9.82;2.03;;;32.20;78.80;;;;;;5025884;28;20084;-51
2022/07/19 10:09:14;;;;;;;2.60;1.80;;;32.10;75.80;;;;;;5025042;28;20033;-50
2022/07/19 10:11:41;;;;;;;4.38;1.40;;;32.30;75.40;;;;;;5023727;28;20046;-51
2022/07/19 10:14:08;;;;;;;2.60;1.40;;;32.70;72.80;;;;;;5012116;28;20067;-51
2022/07/19 10:16:49;;;;;;;2.80;1.30;;;32.80;70.50;;;;;;5024643;28;20412;-51
2022/07/19 10:19:18;;;;;;;7.07;1.58;;;;;;;;;;5022740;28;20366;-50
2022/07/19 10:21:45;;;;;;;3.50;1.48;;;33.50;86.50;;;;;;5022407;28;20068;-50
2022/07/19 10:24:11;;;;;;;3.85;1.73;;;33.60;69.20;;;;;;5018842;28;20119;-50
2022/07/19 10:26:38;;;;;;;3.78;1.45;;;;;;;;;;5017889;28;20533;-50
2022/07/19 10:29:08;;;;;;;6.47;1.60;;;;;;;;;;5026294;28;20088;-50
2022/07/19 10:31:35;;;;;;;3.97;1.27;;;;;;;;;;5020248;28;20033;-52
2022/07/19 10:34:03;;;;;;;2.88;1.25;;;;;;;;;;5015634;28;20461;-50
2022/07/19 10:36:32;;;;;;;3.28;1.30;;;;;;;;;;5018010;28;20105;-51
2022/07/19 10:39:16;;;;;;;6.15;1.45;;;;;;;;;;5021963;28;20103;-51
2022/07/19 10:42:02;;;;;;;3.60;1.55;;;;;;;;;;5019641;28;20053;-51
2022/07/19 10:44:28;;;;;;;2.53;1.60;;;33.00;94.70;;;;;;5026476;28;20467;-51
2022/07/19 10:46:54;;;;;;;1.67;1.08;;;33.50;84.20;;;;;;5025252;28;20084;-50
2022/07/19 10:49:45;;;;;;;2.95;1.20;;;33.60;82.90;;;;;;5029759;28;20025;-50
2022/07/19 10:52:29;;;;;;;5.30;1.00;;;33.40;80.60;;;;;;5027848;28;20116;-50
2022/07/19 10:55:17;;;;;;;4.43;1.27;;;33.10;78.70;;;;;;5025553;28;20052;-51
2022/07/19 10:57:44;;;;;;;2.25;1.00;;;33.60;83.00;;;;;;5029194;28;20029;-51
2022/07/19 11:00:16;;;;;;;4.93;1.30;;;;;;;;;;5021622;28;20159;-51
2022/07/19 11:02:42;;;;;;;1.90;1.40;;;;;;;;;;5023518;28;20018;-50
2022/07/19 11:05:20;;;;;;;3.50;1.77;;;;;;;;;;5027484;28;20397;-50
2022/07/19 11:07:50;;;;;;;2.95;1.30;;;;;;;;;;5022066;28;20029;-51
2022/07/19 11:10:23;;;;;;;4.00;1.52;;;34.30;65.20;;;;;;5026602;28;20029;-50
2022/07/19 11:12:49;;;;;;;3.78;1.67;;;34.40;64.90;;;;;;5022809;28;20029;-50
2022/07/19 11:15:15;;;;;;;1.98;1.40;;;34.70;64.50;;;;;;5025521;28;20041;-50
2022/07/19 11:17:54;;;;;;;3.40;1.38;;;34.50;63.20;;;;;;5025114;28;20028;-52
2022/07/19 11:20:34;;;;;;;3.15;1.98;;;34.30;63.60;;;;;;5047960;28;20045;-51
2022/07/19 11:23:03;;;;;;;2.58;1.58;;;33.30;63.20;;;;;;5024540;28;20032;-50
2022/07/19 11:25:34;;;;;;;4.15;1.55;;;;;;;;;;5028188;28;20456;-51
2022/07/19 11:28:00;;;;;;;3.03;1.47;;;;;;;;;;5026321;28;20526;-51
2022/07/19 11:30:28;;;;;;;2.63;1.63;;;;;;;;;;5018780;28;20065;-50
2022/07/19 11:33:00;;;;;;;3.50;1.38;;;32.70;94.50;;;;;;5027968;28;20029;-51
2022/07/19 11:35:26;;;;;;;3.05;1.60;;;32.80;63.70;;;;;;5029162;28;20477;-50
2022/07/19 11:37:54;;;;;;;4.53;1.50;;;33.30;64.50;;;;;;5026223;28;20026;-51
2022/07/19 11:40:21;;;;;;;4.80;2.00;;;33.40;64.80;;;;;;5022079;28;20052;-50
2022/07/19 11:42:48;;;;;;;3.45;1.58;;;33.90;64.90;;;;;;5022195;28;20036;-51
2022/07/19 11:45:18;;;;;;;5.30;1.60;;;;;;;;;;5020675;28;20050;-50
2022/07/19 11:47:50;;;;;;;2.45;1.45;;;34.40;65.60;;;;;;5024032;28;20047;-50
2022/07/19 11:50:17;;;;;;;2.30;1.67;;;34.70;69.60;;;;;;5024027;28;20480;-50
2022/07/19 11:52:44;;;;;;;4.18;1.70;;;;;;;;;;5019778;28;20634;-50
2022/07/19 11:55:11;;;;;;;4.57;1.70;;;;;;;;;;4990426;28;20049;-51
2022/07/19 11:57:37;;;;;;;4.90;1.70;;;;;;;;;;5018473;28;20037;-50
2022/07/19 12:00:07;;;;;;;4.28;1.52;;;;;;;;;;5007326;28;20040;-50
2022/07/19 12:02:52;;;;;;;7.85;2.13;;;;;;;;;;5008958;28;20033;-51
2022/07/19 12:05:18;;;;;;;5.30;1.70;;;;;;;;;;5003284;28;20127;-53
2022/07/19 12:07:48;;;;;;;4.68;1.92;;;;;;;;;;5000924;28;20448;-54
2022/07/19 12:10:53;;;;;;;3.72;2.45;;;;;;;;;;5002811;28;20038;-55
2022/07/19 12:13:32;;;;;;;5.63;1.83;;;;;;;;;;4928230;29;20055;-52
2022/07/19 12:16:00;;;;;;;3.47;1.50;;;34.70;87.30;;;;;;4929392;29;20035;-52
2022/07/19 12:18:49;;;;;;;3.22;1.80;;;34.60;89.70;;;;;;4929928;29;20040;-51
2022/07/19 12:21:25;;;;;;;2.72;1.85;;;33.90;63.80;;;;;;4923044;29;20891;-51
2022/07/19 12:24:09;;;;;;;6.60;2.33;;;34.30;65.20;;;;;;4938375;28;20050;-51
2022/07/19 12:26:35;;;;;;;3.63;2.00;;;;;;;;;;4945696;28;20042;-51
2022/07/19 12:29:02;;;;;;;3.30;1.80;;;;;;;;;;4947991;29;20754;-51
2022/07/19 12:31:28;;;;;;;3.20;1.80;;;;;;;;;;4948276;29;20032;-51
2022/07/19 12:34:01;;;;;;;5.55;2.10;;;;;;;;;;4932628;29;20055;-51
2022/07/19 12:36:34;;;;;;;3.60;1.83;;;;;;;;;;4949304;29;20110;-51
2022/07/19 12:39:00;;;;;;;2.72;1.80;;;;;;;;;;4964330;28;20096;-51
2022/07/19 12:41:26;;;;;;;5.85;2.00;;;;;;;;;;4948507;29;20031;-51
2022/07/19 12:43:51;;;;;;;2.30;1.60;;;35.70;80.50;;;;;;4977220;28;20050;-51
2022/07/19 12:46:17;;;;;;;3.85;1.77;;;35.00;75.80;;;;;;5019246;28;20080;-52
2022/07/19 12:48:43;;;;;;;2.08;1.40;;;34.80;65.40;;;;;;5041074;28;20052;-51
2022/07/19 12:51:09;;;;;;;7.72;2.08;;;34.90;64.20;;;;;;5048211;28;20069;-51
2022/07/19 12:53:34;;;;;;;4.90;1.95;;;35.20;64.60;;;;;;5007631;28;20056;-52
2022/07/19 12:56:00;;;;;;;4.13;2.00;;;35.30;63.60;;;;;;5022621;28;20044;-51
2022/07/19 13:01:12;;;;;;;4.78;1.98;;;34.90;63.00;;;;;;5020343;28;20096;-51
2022/07/19 13:03:39;;;;;;;3.17;1.85;;;35.40;62.70;;;;;;5020251;28;20033;-52
2022/07/19 13:06:05;;;;;;;2.60;1.50;;;35.80;63.50;;;;;;5021343;28;20124;-52
2022/07/19 13:08:31;;;;;;;3.58;1.38;;;36.00;63.20;;;;;;5038391;28;20124;-51
2022/07/19 13:11:00;;;;;;;4.85;1.85;;;;;;;;;;5006299;28;20132;-51
2022/07/19 13:13:27;;;;;;;3.33;1.73;;;;;;;;;;5021780;28;20030;-51
2022/07/19 13:15:53;;;;;;;3.58;1.90;;;36.40;62.70;;;;;;5023120;28;20084;-51
2022/07/19 13:18:20;;;;;;;2.25;1.45;;;;;;;;;;5023793;28;20034;-51
2022/07/19 13:20:46;;;;;;;5.28;1.52;;;;;;;;;;5023154;28;20481;-51
2022/07/19 13:23:12;;;;;;;4.03;1.70;;;;;;;;;;5026548;28;20041;-51
2022/07/19 13:25:38;;;;;;;3.80;1.73;;;;;;;;;;5031507;28;20079;-52
2022/07/19 13:28:05;;;;;;;3.25;1.80;;;;;;;;;;5025050;28;20029;-51
2022/07/19 13:30:31;;;;;;;36.35;4.80;;;35.70;61.70;;;;;;5027339;28;20609;-51
2022/07/19 13:32:56;;;;;;;5.93;1.80;;;36.10;63.50;;;;;;5027044;28;20060;-51